Time,TemperatureF,DewpointF,PressureIn,WindDirection,WindDirectionDegrees,WindSpeedMPH,WindSpeedGustMPH,Humidity,HourlyPrecipIn,Conditions,Clouds,dailyrainin,SoftwareType,DateUTC
2013-03-09 00:00:00,48.6,42.3,29.92,WNW,293,6.9,6.9,79,0.00,,,0.00,WUHU216HW,2013-03-09 08:00:00,
2013-03-09 00:05:00,48.6,42.3,29.92,WNW,293,6.9,6.9,79,0.00,,,0.00,WUHU216HW,2013-03-09 08:05:00,
2013-03-09 00:10:00,48.6,42.3,29.92,WNW,293,6.9,6.9,79,0.00,,,0.00,WUHU216HW,2013-03-09 08:10:00,
2013-03-09 00:30:00,48.6,42.7,29.92,NW,315,5.8,5.8,80,0.00,,,0.00,WUHU216HW,2013-03-09 08:30:00,
2013-03-09 00:35:00,48.6,42.7,29.92,NW,315,4.7,5.8,80,0.00,,,0.00,WUHU216HW,2013-03-09 08:35:00,
2013-03-09 00:40:00,48.6,42.7,29.92,NW,315,4.7,5.8,80,0.00,,,0.00,WUHU216HW,2013-03-09 08:40:00,
2013-03-09 01:00:00,49.0,43.0,29.93,NW,315,9.6,9.6,80,0.00,,,0.00,WUHU216HW,2013-03-09 09:00:00,
2013-03-09 01:05:00,49.1,43.5,29.93,WNW,293,7.2,9.6,81,0.00,,,0.00,WUHU216HW,2013-03-09 09:05:00,
2013-03-09 01:10:00,49.1,43.5,29.93,WNW,293,7.2,7.2,81,0.00,,,0.00,WUHU216HW,2013-03-09 09:10:00,
2013-03-09 01:30:00,49.3,43.0,29.93,WNW,293,8.7,8.7,79,0.00,,,0.00,WUHU216HW,2013-03-09 09:30:00,
2013-03-09 01:35:00,49.3,43.0,29.93,West,270,9.6,9.6,79,0.00,,,0.00,WUHU216HW,2013-03-09 09:35:00,
2013-03-09 01:40:00,49.3,43.0,29.93,West,270,9.6,9.6,79,0.00,,,0.00,WUHU216HW,2013-03-09 09:40:00,
2013-03-09 02:00:00,49.1,43.2,29.93,West,270,8.1,8.1,80,0.00,,,0.00,WUHU216HW,2013-03-09 10:00:00,
2013-03-09 02:05:00,49.1,43.2,29.93,NW,315,9.2,9.2,80,0.00,,,0.00,WUHU216HW,2013-03-09 10:05:00,
2013-03-09 02:10:00,49.1,43.2,29.93,NW,315,9.2,9.2,80,0.00,,,0.00,WUHU216HW,2013-03-09 10:10:00,
2013-03-09 02:30:00,48.6,43.3,29.93,West,270,6.0,6.0,82,0.00,,,0.00,WUHU216HW,2013-03-09 10:30:00,
2013-03-09 02:35:00,48.6,43.3,29.93,WNW,293,6.3,6.3,82,0.00,,,0.00,WUHU216HW,2013-03-09 10:35:00,
2013-03-09 02:40:00,48.6,43.3,29.93,WNW,293,6.3,6.3,82,0.00,,,0.00,WUHU216HW,2013-03-09 10:40:00,
2013-03-09 03:00:00,48.4,43.1,29.93,West,270,3.4,3.4,82,0.00,,,0.00,WUHU216HW,2013-03-09 11:00:00,
2013-03-09 03:05:00,48.4,43.1,29.93,West,270,3.4,3.4,82,0.00,,,0.00,WUHU216HW,2013-03-09 11:05:00,
2013-03-09 03:10:00,48.4,43.1,29.93,West,270,3.4,3.4,82,0.00,,,0.00,WUHU216HW,2013-03-09 11:10:00,
2013-03-09 03:30:00,48.1,42.1,29.94,West,270,4.9,4.9,80,0.00,,,0.00,WUHU216HW,2013-03-09 11:30:00,
2013-03-09 03:35:00,48.2,42.3,29.94,West,270,4.9,4.9,80,0.00,,,0.00,WUHU216HW,2013-03-09 11:35:00,
2013-03-09 03:40:00,48.2,42.3,29.94,West,270,4.9,4.9,80,0.00,,,0.00,WUHU216HW,2013-03-09 11:40:00,
2013-03-09 04:00:00,47.9,41.9,29.95,WNW,293,5.6,5.6,80,0.00,,,0.00,WUHU216HW,2013-03-09 12:00:00,
2013-03-09 04:05:00,47.9,41.9,29.95,West,270,5.6,5.6,80,0.00,,,0.00,WUHU216HW,2013-03-09 12:05:00,
2013-03-09 04:10:00,47.9,41.9,29.95,West,270,5.6,5.6,80,0.00,,,0.00,WUHU216HW,2013-03-09 12:10:00,
2013-03-09 04:30:00,48.6,42.3,29.97,WNW,293,6.9,6.9,79,0.00,,,0.00,WUHU216HW,2013-03-09 12:30:00,
2013-03-09 04:35:00,48.6,42.3,29.97,WNW,293,6.3,6.9,79,0.00,,,0.00,WUHU216HW,2013-03-09 12:35:00,
2013-03-09 04:40:00,48.6,42.3,29.97,WNW,293,6.3,6.9,79,0.00,,,0.00,WUHU216HW,2013-03-09 12:40:00,
2013-03-09 05:00:00,49.0,42.7,29.98,West,270,8.9,8.9,79,0.00,,,0.00,WUHU216HW,2013-03-09 13:00:00,
2013-03-09 05:05:00,49.1,42.8,29.98,NW,315,10.1,10.1,79,0.00,,,0.00,WUHU216HW,2013-03-09 13:05:00,
2013-03-09 05:10:00,49.1,42.8,29.98,NW,315,10.1,10.1,79,0.00,,,0.00,WUHU216HW,2013-03-09 13:10:00,
2013-03-09 05:30:00,49.5,43.8,29.99,West,270,12.1,12.1,81,0.00,,,0.00,WUHU216HW,2013-03-09 13:30:00,
2013-03-09 05:35:00,49.5,43.8,29.99,WNW,293,13.9,13.9,81,0.00,,,0.00,WUHU216HW,2013-03-09 13:35:00,
2013-03-09 05:40:00,49.5,43.8,29.99,WNW,293,13.9,13.9,81,0.00,,,0.00,WUHU216HW,2013-03-09 13:40:00,
2013-03-09 06:00:00,49.3,44.0,30.00,WNW,293,11.4,11.4,82,0.00,,,0.00,WUHU216HW,2013-03-09 14:00:00,
2013-03-09 06:05:00,49.3,44.0,30.00,WNW,293,11.4,11.4,82,0.00,,,0.00,WUHU216HW,2013-03-09 14:05:00,
2013-03-09 06:10:00,49.3,44.0,30.00,WNW,293,11.4,11.4,82,0.00,,,0.00,WUHU216HW,2013-03-09 14:10:00,
2013-03-09 06:30:00,49.3,44.3,30.00,WNW,293,9.2,9.2,83,0.00,,,0.00,WUHU216HW,2013-03-09 14:30:00,
2013-03-09 06:35:00,49.3,44.0,30.00,WNW,293,9.2,9.2,82,0.00,,,0.00,WUHU216HW,2013-03-09 14:35:00,
2013-03-09 06:40:00,49.3,44.0,30.00,WNW,293,9.2,9.2,82,0.00,,,0.00,WUHU216HW,2013-03-09 14:40:00,
2013-03-09 07:00:00,50.0,44.7,30.01,West,270,1.6,1.6,82,0.00,,,0.00,WUHU216HW,2013-03-09 15:00:00,
2013-03-09 07:05:00,50.0,44.7,30.02,West,270,1.6,1.6,82,0.00,,,0.00,WUHU216HW,2013-03-09 15:05:00,
2013-03-09 07:10:00,50.0,44.7,30.02,West,270,1.6,1.6,82,0.00,,,0.00,WUHU216HW,2013-03-09 15:10:00,
2013-03-09 07:30:00,52.0,45.7,30.02,NW,315,0.7,0.7,79,0.00,,,0.00,WUHU216HW,2013-03-09 15:30:00,
2013-03-09 07:35:00,52.0,45.7,30.02,NW,315,1.1,1.1,79,0.00,,,0.00,WUHU216HW,2013-03-09 15:35:00,
2013-03-09 07:40:00,52.0,45.7,30.02,NW,315,1.1,1.1,79,0.00,,,0.00,WUHU216HW,2013-03-09 15:40:00,
2013-03-09 08:00:00,52.9,45.9,30.03,WNW,293,0.9,0.9,77,0.00,,,0.00,WUHU216HW,2013-03-09 16:00:00,
2013-03-09 08:05:00,52.9,45.9,30.03,NNW,338,0.7,0.9,77,0.00,,,0.00,WUHU216HW,2013-03-09 16:05:00,
2013-03-09 08:10:00,52.9,45.9,30.03,NNW,338,0.7,0.7,77,0.00,,,0.00,WUHU216HW,2013-03-09 16:10:00,
2013-03-09 08:30:00,56.0,47.8,30.04,WNW,293,0.4,0.4,74,0.00,,,0.00,WUHU216HW,2013-03-09 16:30:00,
2013-03-09 08:35:00,56.0,47.8,30.04,WNW,293,0.4,0.4,74,0.00,,,0.00,WUHU216HW,2013-03-09 16:35:00,
2013-03-09 08:40:00,56.0,47.8,30.04,WNW,293,0.4,0.4,74,0.00,,,0.00,WUHU216HW,2013-03-09 16:40:00,
2013-03-09 09:00:00,55.6,44.4,30.05,ESE,113,0.4,0.4,66,0.00,,,0.00,WUHU216HW,2013-03-09 17:00:00,
2013-03-09 09:05:00,55.6,44.4,30.05,ESE,113,0.4,0.4,66,0.00,,,0.00,WUHU216HW,2013-03-09 17:05:00,
2013-03-09 09:10:00,55.6,44.4,30.05,ESE,113,0.4,0.4,66,0.00,,,0.00,WUHU216HW,2013-03-09 17:10:00,
2013-03-09 09:30:00,59.0,46.8,30.05,NNE,23,1.6,1.6,64,0.00,,,0.00,WUHU216HW,2013-03-09 17:30:00,
2013-03-09 09:35:00,59.0,46.8,30.05,NNE,23,1.6,1.6,64,0.00,,,0.00,WUHU216HW,2013-03-09 17:35:00,
2013-03-09 09:40:00,59.0,46.8,30.05,NNE,23,1.6,1.6,64,0.00,,,0.00,WUHU216HW,2013-03-09 17:40:00,
2013-03-09 10:00:00,60.3,46.0,30.06,WNW,293,1.8,1.8,59,0.00,,,0.00,WUHU216HW,2013-03-09 18:00:00,
2013-03-09 10:05:00,60.5,46.2,30.06,West,270,1.6,1.8,59,0.00,,,0.00,WUHU216HW,2013-03-09 18:05:00,
2013-03-09 10:10:00,60.5,46.2,30.06,West,270,1.6,1.6,59,0.00,,,0.00,WUHU216HW,2013-03-09 18:10:00,
2013-03-09 10:30:00,63.4,48.2,30.06,WNW,293,1.1,1.1,58,0.00,,,0.00,WUHU216HW,2013-03-09 18:30:00,
2013-03-09 10:35:00,63.4,48.2,30.06,WNW,293,0.2,1.1,58,0.00,,,0.00,WUHU216HW,2013-03-09 18:35:00,
2013-03-09 10:40:00,63.4,48.2,30.06,WNW,293,0.2,0.7,58,0.00,,,0.00,WUHU216HW,2013-03-09 18:40:00,
2013-03-09 11:00:00,64.6,48.4,30.07,SSW,203,0.4,0.4,56,0.00,,,0.00,WUHU216HW,2013-03-09 19:00:00,
2013-03-09 11:05:00,64.6,48.4,30.07,SW,225,1.1,1.1,56,0.00,,,0.00,WUHU216HW,2013-03-09 19:05:00,
2013-03-09 11:10:00,64.6,48.4,30.07,SW,225,1.1,1.1,56,0.00,,,0.00,WUHU216HW,2013-03-09 19:10:00,
2013-03-09 11:30:00,65.9,49.2,30.07,WNW,293,6.0,6.0,55,0.00,,,0.00,WUHU216HW,2013-03-09 19:30:00,
2013-03-09 11:35:00,65.9,49.2,30.07,WSW,248,7.6,7.6,55,0.00,,,0.00,WUHU216HW,2013-03-09 19:35:00,
2013-03-09 11:40:00,65.9,49.2,30.07,WSW,248,7.6,7.6,55,0.00,,,0.00,WUHU216HW,2013-03-09 19:40:00,
2013-03-09 12:00:00,64.4,47.8,30.07,West,270,4.0,4.0,55,0.00,,,0.00,WUHU216HW,2013-03-09 20:00:00,
2013-03-09 12:05:00,64.4,47.8,30.07,West,270,4.0,4.0,55,0.00,,,0.00,WUHU216HW,2013-03-09 20:05:00,
2013-03-09 12:10:00,64.4,47.8,30.07,West,270,4.0,4.0,55,0.00,,,0.00,WUHU216HW,2013-03-09 20:10:00,
2013-03-09 12:30:00,63.5,48.0,30.07,WSW,248,6.3,6.3,57,0.00,,,0.00,WUHU216HW,2013-03-09 20:30:00,
2013-03-09 12:35:00,63.7,48.2,30.07,West,270,7.2,7.2,57,0.00,,,0.00,WUHU216HW,2013-03-09 20:35:00,
2013-03-09 12:40:00,63.7,48.2,30.07,West,270,7.2,7.2,57,0.00,,,0.00,WUHU216HW,2013-03-09 20:40:00,
2013-03-09 13:00:00,64.4,49.2,30.07,WSW,248,5.1,5.1,58,0.00,,,0.00,WUHU216HW,2013-03-09 21:00:00,
2013-03-09 13:05:00,64.4,48.8,30.07,WNW,293,5.1,5.1,57,0.00,,,0.00,WUHU216HW,2013-03-09 21:05:00,
2013-03-09 13:10:00,64.4,48.8,30.07,WNW,293,5.1,5.1,57,0.00,,,0.00,WUHU216HW,2013-03-09 21:10:00,
2013-03-09 13:30:00,63.5,48.0,30.06,West,270,6.3,6.3,57,0.00,,,0.00,WUHU216HW,2013-03-09 21:30:00,
2013-03-09 13:35:00,63.7,48.2,30.06,NW,315,5.8,6.3,57,0.00,,,0.00,WUHU216HW,2013-03-09 21:35:00,
2013-03-09 13:40:00,63.7,48.2,30.06,NW,315,5.8,5.8,57,0.00,,,0.00,WUHU216HW,2013-03-09 21:40:00,
2013-03-09 14:00:00,64.4,47.8,30.06,WNW,293,5.4,5.4,55,0.00,,,0.00,WUHU216HW,2013-03-09 22:00:00,
2013-03-09 14:05:00,64.4,47.8,30.06,SW,225,3.4,5.4,55,0.00,,,0.00,WUHU216HW,2013-03-09 22:05:00,
2013-03-09 14:10:00,64.4,47.8,30.06,SW,225,3.4,3.4,55,0.00,,,0.00,WUHU216HW,2013-03-09 22:10:00,
2013-03-09 14:30:00,64.8,48.6,30.07,SW,225,2.9,2.9,56,0.00,,,0.00,WUHU216HW,2013-03-09 22:30:00,
2013-03-09 14:35:00,64.8,48.6,30.07,WNW,293,2.0,2.9,56,0.00,,,0.00,WUHU216HW,2013-03-09 22:35:00,
2013-03-09 14:40:00,64.8,48.6,30.07,WNW,293,2.0,2.9,56,0.00,,,0.00,WUHU216HW,2013-03-09 22:40:00,
2013-03-09 15:00:00,64.6,50.4,30.07,WSW,248,1.6,1.6,60,0.00,,,0.00,WUHU216HW,2013-03-09 23:00:00,
2013-03-09 15:05:00,64.6,50.4,30.07,WSW,248,1.6,1.6,60,0.00,,,0.00,WUHU216HW,2013-03-09 23:05:00,
2013-03-09 15:10:00,64.6,50.4,30.07,WSW,248,1.6,1.6,60,0.00,,,0.00,WUHU216HW,2013-03-09 23:10:00,
2013-03-09 15:30:00,65.2,51.4,30.06,WNW,293,7.4,7.4,61,0.00,,,0.00,WUHU216HW,2013-03-09 23:30:00,
2013-03-09 15:35:00,65.2,51.4,30.06,NW,315,8.1,8.1,61,0.00,,,0.00,WUHU216HW,2013-03-09 23:35:00,
2013-03-09 15:40:00,65.2,51.4,30.06,NW,315,8.1,8.1,61,0.00,,,0.00,WUHU216HW,2013-03-09 23:40:00,
2013-03-09 16:00:00,65.9,51.7,30.06,South,180,5.8,5.8,60,0.00,,,0.00,WUHU216HW,2013-03-10 00:00:00,
2013-03-09 16:05:00,65.7,51.5,30.06,South,180,2.9,5.8,60,0.00,,,0.00,WUHU216HW,2013-03-10 00:05:00,
2013-03-09 16:10:00,65.7,51.5,30.06,South,180,2.9,5.8,60,0.00,,,0.00,WUHU216HW,2013-03-10 00:10:00,
2013-03-09 16:30:00,64.8,51.0,30.06,SSE,158,1.3,1.3,61,0.00,,,0.00,WUHU216HW,2013-03-10 00:30:00,
2013-03-09 16:35:00,64.6,50.9,30.06,South,180,3.4,3.4,61,0.00,,,0.00,WUHU216HW,2013-03-10 00:35:00,
2013-03-09 16:40:00,64.6,50.9,30.06,South,180,3.4,3.4,61,0.00,,,0.00,WUHU216HW,2013-03-10 00:40:00,
2013-03-09 17:00:00,64.1,50.8,30.06,SW,225,4.7,4.7,62,0.00,,,0.00,WUHU216HW,2013-03-10 01:00:00,
2013-03-09 17:05:00,64.1,50.8,30.06,WSW,248,4.0,4.7,62,0.00,,,0.00,WUHU216HW,2013-03-10 01:05:00,
2013-03-09 17:10:00,64.1,50.8,30.06,WSW,248,4.0,4.7,62,0.00,,,0.00,WUHU216HW,2013-03-10 01:10:00,
2013-03-09 17:30:00,63.9,50.1,30.07,SSE,158,2.0,2.0,61,0.00,,,0.00,WUHU216HW,2013-03-10 01:30:00,
2013-03-09 17:35:00,63.9,50.1,30.07,SSE,158,2.0,2.0,61,0.00,,,0.00,WUHU216HW,2013-03-10 01:35:00,
2013-03-09 17:40:00,63.9,50.1,30.07,SSE,158,2.0,2.0,61,0.00,,,0.00,WUHU216HW,2013-03-10 01:40:00,
2013-03-09 18:00:00,61.9,48.3,30.08,SE,135,6.0,6.0,61,0.00,,,0.00,WUHU216HW,2013-03-10 02:00:00,
2013-03-09 18:05:00,61.7,48.6,30.08,SSE,158,4.7,6.0,62,0.00,,,0.00,WUHU216HW,2013-03-10 02:05:00,
2013-03-09 18:30:00,59.2,47.0,30.09,SSW,203,0.4,0.4,64,0.00,,,0.00,WUHU216HW,2013-03-10 02:30:00,
2013-03-09 18:35:00,59.0,46.8,30.09,SSW,203,0.4,0.4,64,0.00,,,0.00,WUHU216HW,2013-03-10 02:35:00,
2013-03-09 18:40:00,59.0,46.8,30.09,SSW,203,0.4,0.4,64,0.00,,,0.00,WUHU216HW,2013-03-10 02:40:00,
2013-03-09 19:00:00,54.7,45.6,30.09,SE,135,2.7,2.7,71,0.00,,,0.00,WUHU216HW,2013-03-10 03:00:00,
2013-03-09 19:05:00,54.7,45.6,30.08,SE,135,2.5,2.7,71,0.00,,,0.00,WUHU216HW,2013-03-10 03:05:00,
2013-03-09 19:10:00,54.7,45.6,30.08,SE,135,2.5,2.7,71,0.00,,,0.00,WUHU216HW,2013-03-10 03:10:00,
2013-03-09 19:28:00,52.6,44.6,30.09,ESE,113,0.4,0.4,74,0.00,,,0.00,WUHU216HW,2013-03-10 03:28:00,
2013-03-09 19:33:00,52.6,44.6,30.09,ESE,113,0.9,0.9,74,0.00,,,0.00,WUHU216HW,2013-03-10 03:33:00,
2013-03-09 19:38:00,52.2,44.6,30.09,East,90,1.8,2.0,75,0.00,,,0.00,WUHU216HW,2013-03-10 03:38:00,
2013-03-09 19:43:00,52.0,44.0,30.09,East,90,0.0,2.0,74,0.00,,,0.00,WUHU216HW,2013-03-10 03:43:00,
2013-03-09 19:48:00,51.8,44.2,30.09,East,90,0.2,1.8,75,0.00,,,0.00,WUHU216HW,2013-03-10 03:48:00,
2013-03-09 19:53:00,51.8,44.2,30.09,SSE,158,0.0,1.8,75,0.00,,,0.00,WUHU216HW,2013-03-10 03:53:00,
2013-03-09 19:58:00,51.7,44.0,30.09,SE,135,1.1,1.8,75,0.00,,,0.00,WUHU216HW,2013-03-10 03:58:00,
2013-03-09 20:03:00,51.5,43.8,30.09,South,180,0.0,1.6,75,0.00,,,0.00,WUHU216HW,2013-03-10 04:03:00,
2013-03-09 20:08:00,51.5,43.8,30.10,South,180,0.4,1.6,75,0.00,,,0.00,WUHU216HW,2013-03-10 04:08:00,
2013-03-09 20:13:00,51.3,43.7,30.10,SSW,203,0.2,0.4,75,0.00,,,0.00,WUHU216HW,2013-03-10 04:13:00,
2013-03-09 20:18:00,51.1,43.8,30.10,SSW,203,0.4,0.4,76,0.00,,,0.00,WUHU216HW,2013-03-10 04:18:00,
2013-03-09 20:23:00,50.9,43.7,30.10,WNW,293,0.4,0.4,76,0.00,,,0.00,WUHU216HW,2013-03-10 04:23:00,
2013-03-09 20:28:00,50.8,43.5,30.10,WSW,248,1.1,1.6,76,0.00,,,0.00,WUHU216HW,2013-03-10 04:28:00,
2013-03-09 20:33:00,50.8,43.5,30.10,SW,225,0.4,1.6,76,0.00,,,0.00,WUHU216HW,2013-03-10 04:33:00,
2013-03-09 20:38:00,50.6,43.7,30.10,SSW,203,0.4,1.3,77,0.00,,,0.00,WUHU216HW,2013-03-10 04:38:00,
2013-03-09 20:43:00,50.4,43.5,30.10,WSW,248,0.7,1.3,77,0.00,,,0.00,WUHU216HW,2013-03-10 04:43:00,
2013-03-09 20:48:00,50.4,43.5,30.11,WSW,248,1.1,1.1,77,0.00,,,0.00,WUHU216HW,2013-03-10 04:48:00,
2013-03-09 20:53:00,50.2,43.6,30.11,West,270,3.1,3.1,78,0.00,,,0.00,WUHU216HW,2013-03-10 04:53:00,
2013-03-09 20:58:00,50.0,43.4,30.12,SW,225,0.9,3.1,78,0.00,,,0.00,WUHU216HW,2013-03-10 04:58:00,
2013-03-09 21:00:00,50.0,43.4,30.12,SE,135,1.8,3.1,78,0.00,,,0.00,WUHU216HW,2013-03-10 05:00:00,
2013-03-09 21:05:00,49.7,43.4,30.11,ENE,68,1.8,1.8,79,0.00,,,0.00,WUHU216HW,2013-03-10 05:05:00,
2013-03-09 21:10:00,49.3,43.7,30.12,East,90,1.3,2.2,81,0.00,,,0.00,WUHU216HW,2013-03-10 05:10:00,
2013-03-09 21:15:00,49.1,43.8,30.12,East,90,2.2,2.5,82,0.00,,,0.00,WUHU216HW,2013-03-10 05:15:00,
2013-03-09 21:20:00,49.1,44.5,30.12,East,90,2.5,2.7,84,0.00,,,0.00,WUHU216HW,2013-03-10 05:20:00,
2013-03-09 21:25:00,49.0,44.0,30.13,East,90,1.8,2.7,83,0.00,,,0.00,WUHU216HW,2013-03-10 05:25:00,
2013-03-09 21:30:00,48.6,44.3,30.13,East,90,4.0,4.0,85,0.00,,,0.00,WUHU216HW,2013-03-10 05:30:00,
2013-03-09 21:35:00,48.4,44.1,30.13,ENE,68,3.4,4.0,85,0.00,,,0.00,WUHU216HW,2013-03-10 05:35:00,
2013-03-09 21:40:00,48.2,44.6,30.12,East,90,2.9,3.4,87,0.00,,,0.00,WUHU216HW,2013-03-10 05:40:00,
2013-03-09 21:45:00,48.2,44.6,30.12,East,90,2.9,3.6,87,0.00,,,0.00,WUHU216HW,2013-03-10 05:45:00,
2013-03-09 21:50:00,48.1,44.7,30.12,East,90,4.3,4.3,88,0.00,,,0.00,WUHU216HW,2013-03-10 05:50:00,
2013-03-09 21:55:00,47.9,44.6,30.12,East,90,3.1,4.3,88,0.00,,,0.00,WUHU216HW,2013-03-10 05:55:00,
2013-03-09 22:00:00,47.9,44.6,30.12,East,90,2.9,4.0,88,0.00,,,0.00,WUHU216HW,2013-03-10 06:00:00,
2013-03-09 22:05:00,47.9,44.6,30.12,East,90,1.8,3.4,88,0.00,,,0.00,WUHU216HW,2013-03-10 06:05:00,
2013-03-09 22:10:00,47.9,44.6,30.12,East,90,2.7,3.4,88,0.00,,,0.00,WUHU216HW,2013-03-10 06:10:00,
2013-03-09 22:15:00,47.9,44.8,30.12,East,90,3.4,3.8,89,0.00,,,0.00,WUHU216HW,2013-03-10 06:15:00,
2013-03-09 22:20:00,47.9,44.6,30.12,East,90,2.7,3.8,88,0.00,,,0.00,WUHU216HW,2013-03-10 06:20:00,
2013-03-09 22:25:00,47.9,44.6,30.12,East,90,2.0,2.7,88,0.00,,,0.00,WUHU216HW,2013-03-10 06:25:00,
2013-03-09 22:30:00,47.9,44.6,30.12,ENE,68,1.1,3.6,88,0.00,,,0.00,WUHU216HW,2013-03-10 06:30:00,
2013-03-09 22:35:00,48.1,44.7,30.12,East,90,1.1,3.6,88,0.00,,,0.00,WUHU216HW,2013-03-10 06:35:00,
2013-03-09 22:40:00,48.2,44.9,30.12,East,90,1.8,1.8,88,0.00,,,0.00,WUHU216HW,2013-03-10 06:40:00,
2013-03-09 22:45:00,48.4,45.1,30.12,ENE,68,1.8,2.5,88,0.00,,,0.00,WUHU216HW,2013-03-10 06:45:00,
2013-03-09 22:50:00,48.6,45.5,30.11,ENE,68,1.8,3.1,89,0.00,,,0.00,WUHU216HW,2013-03-10 06:50:00,
2013-03-09 22:55:00,48.6,45.2,30.11,East,90,0.4,3.1,88,0.00,,,0.00,WUHU216HW,2013-03-10 06:55:00,
2013-03-09 23:00:00,48.4,44.7,30.11,NE,45,1.8,2.0,87,0.00,,,0.00,WUHU216HW,2013-03-10 07:00:00,
2013-03-09 23:05:00,48.2,44.6,30.12,NNE,23,0.0,2.0,87,0.00,,,0.00,WUHU216HW,2013-03-10 07:05:00,
2013-03-09 23:10:00,47.9,43.9,30.12,NNE,23,0.9,1.8,86,0.00,,,0.00,WUHU216HW,2013-03-10 07:10:00,
2013-03-09 23:15:00,47.7,43.8,30.12,NNE,23,0.0,1.1,86,0.00,,,0.00,WUHU216HW,2013-03-10 07:15:00,
2013-03-09 23:20:00,47.5,43.6,30.12,NNE,23,0.0,1.1,86,0.00,,,0.00,WUHU216HW,2013-03-10 07:20:00,
2013-03-09 23:25:00,47.3,43.4,30.11,NE,45,0.9,1.6,86,0.00,,,0.00,WUHU216HW,2013-03-10 07:25:00,
2013-03-09 23:30:00,47.5,43.8,30.11,NE,45,0.2,1.6,87,0.00,,,0.00,WUHU216HW,2013-03-10 07:30:00,
2013-03-09 23:35:00,47.5,43.8,30.11,NE,45,0.2,1.6,87,0.00,,,0.00,WUHU216HW,2013-03-10 07:35:00,
2013-03-09 23:40:00,47.5,44.2,30.10,NE,45,2.0,2.5,88,0.00,,,0.00,WUHU216HW,2013-03-10 07:40:00,
2013-03-09 23:45:00,47.3,43.7,30.10,ENE,68,0.7,2.5,87,0.00,,,0.00,WUHU216HW,2013-03-10 07:45:00,
2013-03-09 23:50:00,47.3,43.7,30.10,North,0,0.4,1.6,87,0.00,,,0.00,WUHU216HW,2013-03-10 07:50:00,
2013-03-09 23:55:00,47.2,43.6,30.11,North,0,0.4,0.4,87,0.00,,,0.00,WUHU216HW,2013-03-10 07:55:00,